Pluja Des de: 17-10-2018 23:00 Fins: 18-10-2018 16:59 Advertencias per a: Pluja Nivell: Groc info button
 

Resums METAR propers

 

LEBL - Barcelona Airpor, Spain
DistÓncia des de l'estaciˇ: SSE 30km
Actualitzaciˇ: 17/10/2018 20:00
Alguns n˙vols
Alguns n˙vols
 Vent del NE
Vent: NE 13 km/h
Temperatura: 20°C
Rosada: 15°C
Humitat: 73%
Bar˛metre: 1013 hPa
Nuvolositat: Alguns n˙vols
Visibilitat: 10 km
Detalls nuvolositat: Alguns n˙vols 1067 m
2018/10/17 18:00 LEBL 171800Z 05007KT 020V100 9999 FEW035 20/15 Q1013 NOSIG
LELL - Sabadell, Spain
DistÓncia des de l'estaciˇ: ONO 14km
Actualitzaciˇ: 17/10/2018 20:00
SerÚ
SerÚ
 Vent del varies
Vent: varies 2 km/h
Temperatura: 19°C
Rosada: 15°C
Humitat: 78%
Bar˛metre: 1014 hPa
Resum: SerÚ
Visibilitat: major de 10 km
2018/10/17 18:00 LELL 171800Z AUTO VRB01KT CAVOK 19/15 Q1014
 
LEGE - Girona/Costa Bra, Spain
DistÓncia des de l'estaciˇ: NE 65km
Actualitzaciˇ: 17/10/2018 20:00
Parcialment cobert
Parcialment cobert
 Vent del varies
Vent: varies 2 km/h
Temperatura: 16°C
Rosada: 16°C
Humitat: 100%
Bar˛metre: 1014 hPa
Nuvolositat: Parcialment cobert
Visibilitat: 10 km
Detalls nuvolositat: Alguns n˙vols 1067 m
Parcialment cobert 1219 m
2018/10/17 18:00 LEGE 171800Z VRB01KT 9999 FEW035 SCT040 16/16 Q1014
LERS - Reus (civ/Mil), Spain
DistÓncia des de l'estaciˇ: OSO 96km
Actualitzaciˇ: 17/10/2018 20:00
Alguns n˙vols
Alguns n˙vols
 Vent del calm
Vent: Calma
Temperatura: 19°C
Rosada: 17°C
Humitat: 88%
Bar˛metre: 1013 hPa
Nuvolositat: Alguns n˙vols
Visibilitat: 10 km
Detalls nuvolositat: Alguns n˙vols 610 m
2018/10/17 18:00 LERS 171800Z 00000KT 9999 FEW020 19/17 Q1013
 
LESU - Pirineus/La Seu, Spain
DistÓncia des de l'estaciˇ: NO 121km
Actualitzaciˇ: 16/10/2018 12:30
NO actualitzat
Parcialment cobert
Parcialment cobert
 Vent del SE
Vent: SE 7 km/h
Temperatura: 15°C
Rosada: 8°C
Humitat: 63%
Bar˛metre: 1017 hPa
Nuvolositat: Parcialment cobert
Visibilitat: 10 km
Detalls nuvolositat: Parcialment cobert 914 m
2018/10/16 10:30 LESU 161030Z 14004KT 100V180 9999 SCT030 15/08 Q1017
LEDA - Lleida/Alguaire, Spain
DistÓncia des de l'estaciˇ: ONO 146km
Actualitzaciˇ: 17/10/2018 20:00
Alguns n˙vols
Alguns n˙vols
 Vent del calm
Vent: Calma
Temperatura: 17°C
Rosada: 14°C
Humitat: 83%
Bar˛metre: 1014 hPa
Nuvolositat: Alguns n˙vols
Visibilitat: 10 km
Detalls nuvolositat: Alguns n˙vols 914 m
2018/10/17 18:00 LEDA 171800Z 00000KT 9999 FEW030 17/14 Q1014
 
LFMP - Perpignan/Rivesa, France
DistÓncia des de l'estaciˇ: NNE 150km
Actualitzaciˇ: 17/10/2018 20:00
Tapat
Tapat
 Vent del OSO
Vent: OSO 6 km/h
Temperatura: 17°C
Rosada: 16°C
Humitat: 94%
Bar˛metre: 1015 hPa
Nuvolositat: Tapat
Visibilitat: 10 km
Detalls nuvolositat: Molt cobert 1280 m
Tapat 1463 m
2018/10/17 18:00 LFMP 171800Z AUTO 25003KT 9999 BKN042 OVC048 17/16 Q1015 NOSIG
LEPA - Palma De Mallorca, Spain
DistÓncia des de l'estaciˇ: S 216km
Actualitzaciˇ: 17/10/2018 20:00
Alguns n˙vols
Alguns n˙vols
 Vent del ENE
Vent: ENE 7 km/h
Temperatura: 20°C
Rosada: 17°C
Humitat: 83%
Bar˛metre: 1011 hPa
Nuvolositat: Alguns n˙vols
Visibilitat: 10 km
Detalls nuvolositat: Alguns n˙vols 610 m
Alguns n˙vols 762 m
2018/10/17 18:00 LEPA 171800Z 07004KT 9999 FEW020 FEW025TCU 20/17 Q1011 NOSIG